Durant, Iowa
Current Conditions -  °F | °C
As of 1:52 PM on Sunday 23 Nov 2014 (Local Time) from KDVN Reporting Station
Moderate Rain Moderate Rain  
Wind Chill: 51°   Ceiling: 600
Heat Index: 51°   Visibility: 2mi
Dew Point: 49°   Wind: 14mph
Humidity: 92%   Direction: 150°SSE
Pressure: 29.41"   Gusts: NA
Location:  41.6°N, 90.91°W
Report Text: KDVN 231952Z AUTO 15012KT 2SM RA BR OVC006 11/09 A2941 RMK AO2 CIG 004V008 SLP959 P0013 T01060094
Loading
Personal Weather Stations






























Interactive Weather Map New forecast layout! Learn more

10-Day Weather Forecast

Advertisements
Track Severe Weather on mobile